KAOO/AOO METAR and TAF weather

Enter ICAO airport designator
Station Type Date Time Source
KAOO METAR 2019/02/23 16:53 UTC NOAA

KAOO 231653Z AUTO 16010KT 10SM SCT032 OVC100 02/M04 A3032 RMK AO2 SLP281 T00171044


Station Type Date Time Source
KAOO Decoded METAR 2019/02/23 16:53 UTC NOAA

ALTOONA-BLAIR COUNTY AIRPORT, PA, United States (KAOO) 40-18N 78-19W 455M
Feb 23, 2019 - 11:53 AM EST / 2019.02.23 1653 UTC
Wind: from the SSE (160 degrees) at 12 MPH (10 KT):0
Visibility: 10 mile(s):0
Sky conditions: overcast
Temperature: 35.1 F (1.7 C)
Dew Point: 24.1 F (-4.4 C)
Relative Humidity: 63%
Pressure (altimeter): 30.32 in. Hg (1026 hPa)
ob: KAOO 231653Z AUTO 16010KT 10SM SCT032 OVC100 02/M04 A3032 RMK AO2 SLP281 T00171044
cycle: 17

Station Type Date Time Source
KAOO TAF 2019/02/23 18:22 UTC NOAA

TAF KAOO 231720Z 2318/2418 17009KT P6SM OVC035
FM232000 15008KT 3SM -RA BR OVC025
FM240000 16007KT 6SM -RA BKN007 OVC020 WS020/18035KT
FM241600 22013G20KT P6SM -SHRA OVC025


Example: see airport list